Atwater, CA

10:38 PM PDT on August 27, 2014 (GMT -0700)
Castle | Change Station
CLOSE
Current Station
Airport
Location: Atwater,
Elevation: 187 ft
Nearby Weather Stations

Elev 187 ft 37.38 °N, 120.57 °W | Updated 23 minutes ago

Clear
Clear
79 °F
Feels Like 79 °F
N
9
Wind Variable Wind from North

Today
High -- | Low -- °F
--% Chance of Precip.
Yesterday
High -- | Low -- °F
Precip. -- in
6:28 AM 7:38 PM
Waxing Crescent, 6% visible
Pressure 29.98 in
Visibility 10.0 miles
Clouds Clear
Dew Point 54 °F
Humidity 42%
Rainfall 0.00 in
Snow Depth Not available.
UV 0 out of 12
Pollen 8.90 out of 12
Air Quality Not available.
Flu Activity Not available.
METAR KMER 280515Z AUTO 01008KT 10SM CLR 26/12 A2998 RMK AO1

More Conditions Fewer Conditions

Pressure 29.98 in
Visibility 10.0 miles
Clouds Clear
Dew Point 54 °F
Humidity 42%
Rainfall 0.00 in
Snow Depth Not available.
UV 0 out of 12
Pollen 8.90 out of 12
Air Quality Not available.
Flu Activity Not available.
METAR KMER 280515Z AUTO 01008KT 10SM CLR 26/12 A2998 RMK AO1

More Conditions Fewer Conditions

10-Day Weather Forecast

Almanac

Astronomy

Aug. 27, 2014 Rise Set
Actual Time 6:28 AM PDT 7:38 PM PDT
Civil Twilight 6:01 AM PDT 8:05 PM PDT
Nautical Twilight 5:29 AM PDT 8:37 PM PDT
Astronomical Twilight 4:56 AM PDT 9:10 PM PDT
Moon 8:26 AM PDT (8/27) 8:37 PM PDT (8/27)
Length of Visible Light 14h 03m
Length of Day
13h 09m
Tomorrow will be 2m 16s shorter.
Waxing Crescent, 6% of the Moon is Illuminated
Aug 28
Waxing Crescent
Sep 2
First Quarter
Sep 8
Full
Sep 15
Last Quarter
Sep 24
New

Yesterday's Extremes

State Highs State Lows

Community

WunderPhotos

Upload Photos

1,747,909 photos uploaded!

Nearby

Air Quality

  Air Quality AQ Index Pollutant
Wednesday Moderate
OZONE
Thursday Unhealthy for Sensitive Groups
OZONE
Friday Unhealthy for Sensitive Groups
OZONE
Saturday Unhealthy for Sensitive Groups
OZONE
Sunday Unhealthy for Sensitive Groups
OZONE
Monday Unhealthy for Sensitive Groups
OZONE

Snow Depth

Station Depth Elevation
Leavitt Lake 0 in 9400 ft
Leavitt Meadows 0 in 7200 ft
Blue Lakes 0 in 8000 ft
Monitor Pass 0 in 8350 ft
Echo Peak 0 in 7800 ft

Earthquake Activity

City Distance Mag. Time & Date
Napa, California 113 miles 2.6 11:57 AM PDT
2014-08-27
Soledad, California 62 miles 2.6 12:15 PM PDT
2014-08-26
Napa, California 112 miles 2.5 10:56 AM PDT
2014-08-26
Napa, California 112 miles 3.0 6:45 AM PDT
2014-08-26
Minimum magnitude displayed is 2.5.

Coastal Water Temperatures

Place Temperature
No Stations Reporting

Nearby Weather Stations